createdAt,value
2018-07-30T00:14:01.641Z,5.60
2018-07-30T00:16:29.489Z,7.05
2018-07-30T00:21:24.975Z,6.73
2018-07-30T00:23:53.015Z,6.47
2018-07-30T00:26:21.102Z,6.65
2018-07-30T00:28:49.161Z,6.93
2018-07-30T00:48:28.298Z,6.90
2018-07-30T00:53:23.569Z,6.67
2018-07-30T00:55:51.801Z,6.60
2018-07-30T00:58:19.879Z,6.93
2018-07-30T01:00:48.030Z,6.50
2018-07-30T01:03:16.126Z,7.00
2018-07-30T01:05:44.169Z,7.20
2018-07-30T01:08:12.224Z,6.80
2018-07-30T01:10:40.458Z,7.23
2018-07-30T01:13:08.521Z,6.80
2018-07-30T01:15:36.373Z,6.97
2018-07-30T01:18:04.454Z,7.07
2018-07-30T01:20:32.538Z,6.57
2018-07-30T01:23:00.606Z,7.07
2018-07-30T01:25:28.686Z,6.80
2018-07-30T01:27:56.763Z,6.87
2018-07-30T01:30:24.862Z,7.17
2018-07-30T01:32:52.906Z,6.97
2018-07-30T01:35:20.945Z,7.10
2018-07-30T01:37:48.838Z,6.93
2018-07-30T01:40:17.121Z,6.93
2018-07-30T01:42:45.213Z,7.10
2018-07-30T01:45:13.057Z,7.03
2018-07-30T01:47:41.092Z,7.37
2018-07-30T01:50:09.177Z,7.40
2018-07-30T01:52:37.042Z,7.10
2018-07-30T01:55:05.131Z,7.50
2018-07-30T01:57:33.195Z,7.80
2018-07-30T02:00:01.271Z,7.70
2018-07-30T02:02:29.371Z,7.87
2018-07-30T02:04:59.037Z,6.83
2018-07-30T02:07:27.386Z,7.20
2018-07-30T02:09:55.638Z,7.37
2018-07-30T02:12:23.713Z,7.57
2018-07-30T02:14:51.779Z,7.30
2018-07-30T02:17:19.825Z,7.90
2018-07-30T02:19:47.934Z,7.17
2018-07-30T02:22:15.986Z,7.43
2018-07-30T02:24:44.037Z,7.87
2018-07-30T02:27:12.086Z,7.80
2018-07-30T02:29:40.145Z,7.77
2018-07-30T02:32:08.230Z,7.67
2018-07-30T02:34:36.273Z,6.90
2018-07-30T02:37:04.393Z,7.67
2018-07-30T02:39:32.413Z,7.80
2018-07-30T02:42:00.498Z,7.90
2018-07-30T02:44:28.570Z,7.37
2018-07-30T02:46:56.434Z,7.33
2018-07-30T02:49:24.487Z,8.07
2018-07-30T02:51:52.337Z,7.17
2018-07-30T02:54:20.398Z,7.63
2018-07-30T02:56:48.462Z,7.60
2018-07-30T02:59:16.579Z,7.63
2018-07-30T03:01:44.637Z,7.93
2018-07-30T03:04:12.701Z,7.73
2018-07-30T03:06:40.743Z,7.40
2018-07-30T03:09:09.818Z,7.70
2018-07-30T03:11:38.169Z,7.73
2018-07-30T03:14:06.239Z,8.23
2018-07-30T03:16:34.475Z,8.50
2018-07-30T03:19:02.655Z,8.17
2018-07-30T03:21:30.788Z,8.00
2018-07-30T03:23:58.846Z,8.30
2018-07-30T03:26:26.918Z,8.17
2018-07-30T03:28:54.982Z,7.77
2018-07-30T03:31:23.041Z,8.47
2018-07-30T03:33:51.094Z,8.30
2018-07-30T03:36:19.146Z,7.63
2018-07-30T03:38:47.205Z,8.03
2018-07-30T03:41:15.290Z,7.67
2018-07-30T03:43:43.158Z,8.13
2018-07-30T03:46:11.210Z,8.20
2018-07-30T03:48:39.264Z,8.30
2018-07-30T03:51:07.334Z,8.37
2018-07-30T03:53:35.389Z,8.50
2018-07-30T03:56:03.450Z,7.03
2018-07-30T03:58:31.502Z,7.90
2018-07-30T04:00:59.553Z,7.93
2018-07-30T04:03:27.607Z,8.60
2018-07-30T04:05:55.684Z,8.67
2018-07-30T04:08:23.730Z,7.93
2018-07-30T04:10:51.773Z,9.00
2018-07-30T04:13:19.857Z,8.07
2018-07-30T04:15:47.937Z,7.90
2018-07-30T04:18:15.989Z,8.77
2018-07-30T04:20:44.050Z,8.40
2018-07-30T04:23:12.134Z,8.47
2018-07-30T04:25:40.006Z,8.27
2018-07-30T04:28:08.034Z,8.40
2018-07-30T04:30:36.094Z,8.40
2018-07-30T04:33:04.214Z,8.40
2018-07-30T04:35:32.279Z,8.70
2018-07-30T04:38:00.330Z,8.17
2018-07-30T04:40:28.397Z,8.13
2018-07-30T04:42:56.449Z,7.60
2018-07-30T04:45:24.498Z,8.73
2018-07-30T04:47:52.561Z,7.80
2018-07-30T04:50:20.714Z,8.80
2018-07-30T04:52:48.782Z,9.47
2018-07-30T04:55:16.737Z,9.60
2018-07-30T04:57:44.797Z,9.13
2018-07-30T05:00:12.848Z,9.77
2018-07-30T05:02:40.914Z,9.70
2018-07-30T05:05:08.966Z,9.57
2018-07-30T05:07:37.001Z,9.53
2018-07-30T05:10:05.374Z,9.80
2018-07-30T05:12:33.418Z,9.90
2018-07-30T05:15:01.490Z,9.20
2018-07-30T05:17:29.553Z,9.13
2018-07-30T05:19:57.606Z,9.53
2018-07-30T05:22:25.641Z,9.03
2018-07-30T05:24:53.685Z,10.43
2018-07-30T05:29:49.152Z,9.43
2018-07-30T05:32:17.218Z,10.13
2018-07-30T05:34:45.304Z,9.90
2018-07-30T05:37:13.409Z,10.03
2018-07-30T05:39:41.426Z,9.73
2018-07-30T05:47:04.273Z,9.23
2018-07-30T05:54:27.095Z,9.00
2018-07-30T05:56:55.149Z,9.13
2018-07-30T05:59:23.242Z,8.93
2018-07-30T06:01:51.286Z,8.67
2018-07-30T06:04:19.318Z,8.70
2018-07-30T06:06:47.364Z,8.80
2018-07-30T06:16:37.567Z,8.35
2018-07-30T06:21:33.166Z,9.60
2018-07-30T06:24:01.214Z,8.13
2018-07-30T06:31:24.121Z,8.33
2018-07-30T06:33:52.502Z,9.27
2018-07-30T06:36:20.558Z,8.63
2018-07-30T07:42:40.877Z,7.70
2018-07-30T07:47:36.814Z,7.37
2018-07-30T07:50:05.514Z,7.33
2018-07-30T07:55:00.806Z,6.97
2018-07-30T07:57:28.878Z,7.22
2018-07-30T07:59:56.926Z,6.85
2018-07-30T08:04:52.386Z,7.10
2018-07-30T08:09:48.053Z,6.80
2018-07-30T08:17:10.758Z,6.93
2018-07-30T08:19:38.813Z,7.22
2018-07-30T08:22:06.953Z,6.87
2018-07-30T08:29:29.798Z,6.95
2018-07-30T08:31:57.842Z,6.70
2018-07-30T08:34:25.687Z,6.15
2018-07-30T08:36:53.557Z,6.87
2018-07-30T08:39:21.597Z,6.00
2018-07-30T08:44:17.086Z,6.15
2018-07-30T08:49:12.552Z,4.80
2018-07-30T08:54:08.039Z,5.17
2018-07-30T08:56:36.091Z,6.60
2018-07-30T08:59:04.150Z,5.78
2018-07-30T09:03:59.962Z,5.30
2018-07-30T09:08:55.226Z,5.40
2018-07-30T09:16:18.124Z,4.80
2018-07-30T09:23:41.059Z,4.70
2018-07-30T09:40:53.731Z,4.80
2018-07-30T09:43:21.797Z,4.80
2018-07-30T09:53:11.833Z,4.45
2018-07-30T09:55:40.045Z,4.03
2018-07-30T10:00:41.138Z,3.80
2018-07-30T10:05:36.396Z,3.52
2018-07-30T10:10:31.835Z,3.65
2018-07-30T10:12:59.873Z,3.60
2018-07-30T10:15:27.957Z,3.90
2018-07-30T10:17:56.078Z,3.50
2018-07-30T10:20:24.053Z,3.80
2018-07-30T10:22:52.098Z,3.70
2018-07-30T10:25:20.186Z,4.10
2018-07-30T10:27:48.247Z,3.80
2018-07-30T10:30:16.293Z,3.45
2018-07-30T10:32:44.329Z,3.62
2018-07-30T10:35:12.521Z,3.60
2018-07-30T10:37:40.567Z,3.50
2018-07-30T10:40:08.614Z,3.22
2018-07-30T10:42:36.781Z,3.45
2018-07-30T10:45:05.147Z,3.77
2018-07-30T10:47:33.181Z,3.42
2018-07-30T10:50:01.684Z,3.80
2018-07-30T10:52:30.138Z,3.60
2018-07-30T10:54:58.173Z,3.27
2018-07-30T10:57:26.238Z,3.80
2018-07-30T10:59:54.290Z,3.35
2018-07-30T11:02:22.465Z,3.52
2018-07-30T11:04:50.511Z,3.70
2018-07-30T11:07:18.541Z,3.55
2018-07-30T11:14:41.439Z,3.30
2018-07-30T11:17:09.465Z,3.55
2018-07-30T11:39:16.737Z,3.67
2018-07-30T11:41:44.757Z,3.90
2018-07-30T11:51:34.810Z,3.30
2018-07-30T12:30:54.485Z,3.50
2018-07-30T13:10:19.494Z,3.75
2018-07-30T13:12:47.726Z,3.55
2018-07-30T13:15:15.774Z,3.70
2018-07-30T13:17:43.941Z,3.27
2018-07-30T13:20:11.995Z,3.90
2018-07-30T13:22:40.043Z,3.70
2018-07-30T13:25:08.095Z,3.55
2018-07-30T13:27:36.273Z,3.80
2018-07-30T13:30:05.277Z,3.20
2018-07-30T13:35:00.501Z,3.83
2018-07-30T13:39:55.925Z,4.03
2018-07-30T13:42:23.961Z,3.30
2018-07-30T13:44:52.014Z,4.10
2018-07-30T13:47:20.050Z,3.47
2018-07-30T13:52:15.274Z,3.75
2018-07-30T13:54:43.458Z,4.42
2018-07-30T13:57:11.499Z,3.55
2018-07-30T13:59:39.672Z,3.77
2018-07-30T14:04:35.118Z,3.75
2018-07-30T14:07:03.222Z,3.80
2018-07-30T14:09:31.265Z,3.75
2018-07-30T14:16:53.925Z,3.60
2018-07-30T14:19:21.989Z,3.60
2018-07-30T14:31:39.651Z,3.40
2018-07-30T14:34:07.694Z,3.62
2018-07-30T14:58:41.878Z,4.15
2018-07-30T15:28:11.461Z,3.70
2018-07-30T15:33:06.894Z,3.95
2018-07-30T15:40:29.488Z,3.77
2018-07-30T15:50:19.718Z,4.25
2018-07-30T16:32:05.314Z,4.10
2018-07-30T16:37:00.734Z,3.72
2018-07-30T16:39:28.778Z,3.77
2018-07-30T16:41:56.836Z,3.72
2018-07-30T16:44:24.895Z,3.60
2018-07-30T16:46:52.961Z,4.00
2018-07-30T16:49:20.746Z,3.70
2018-07-30T16:51:48.802Z,3.95
2018-07-30T16:54:16.829Z,3.90
2018-07-30T16:56:44.861Z,4.00
2018-07-30T16:59:12.895Z,4.05
2018-07-30T17:04:08.131Z,3.50
2018-07-30T17:06:36.125Z,3.92
2018-07-30T17:09:06.333Z,3.80
2018-07-30T17:18:56.525Z,5.25
2018-07-30T17:21:24.354Z,12.60
2018-07-30T17:23:52.201Z,30.25
2018-07-30T17:26:20.244Z,21.50
2018-07-30T17:28:48.285Z,15.25
2018-07-30T17:36:10.934Z,87.82
2018-07-30T17:38:38.969Z,79.45
2018-07-30T17:50:56.358Z,25.90
2018-07-30T17:58:19.174Z,14.30
2018-07-30T18:00:47.222Z,8.45
2018-07-30T18:03:15.058Z,6.97
2018-07-30T18:05:43.098Z,4.22
2018-07-30T18:08:11.143Z,3.80
2018-07-30T18:10:39.187Z,3.72
2018-07-30T18:13:07.222Z,4.50
2018-07-30T18:22:57.426Z,4.00
2018-07-30T18:32:47.532Z,4.10
2018-07-30T18:40:10.350Z,3.90
2018-07-30T18:57:22.545Z,4.70
2018-07-30T19:19:29.277Z,4.87
2018-07-30T19:31:46.890Z,5.05
2018-07-30T20:03:45.930Z,4.95
2018-07-30T20:06:13.970Z,4.80
2018-07-30T20:20:59.238Z,5.40
2018-07-30T20:55:23.233Z,3.87
2018-07-30T21:00:18.653Z,4.35
2018-07-30T21:02:46.706Z,4.00
2018-07-30T21:05:15.099Z,4.23
2018-07-30T21:17:32.933Z,5.15
2018-07-30T21:24:56.611Z,3.92
2018-07-30T21:27:24.685Z,4.62
2018-07-30T21:34:47.489Z,3.73
2018-07-30T21:37:15.521Z,4.70
2018-07-30T21:39:43.352Z,4.25
2018-07-30T21:42:11.188Z,4.45
2018-07-30T21:44:39.247Z,3.98
2018-07-30T21:47:07.286Z,3.90
2018-07-30T21:49:35.333Z,3.95
2018-07-30T21:52:03.377Z,4.05
2018-07-30T21:54:31.423Z,4.47
2018-07-30T21:56:59.457Z,4.10
2018-07-30T21:59:27.558Z,4.30
2018-07-30T22:01:55.594Z,4.05
2018-07-30T22:04:23.645Z,4.20
2018-07-30T22:06:51.698Z,4.45
2018-07-30T22:09:19.733Z,4.95
2018-07-30T22:19:09.730Z,4.85
2018-07-30T22:21:37.774Z,5.10
2018-07-30T22:24:05.923Z,4.25
2018-07-30T22:26:33.828Z,4.47
2018-07-30T22:29:01.880Z,4.00
2018-07-30T22:31:29.921Z,4.60
2018-07-30T22:33:57.987Z,4.58
2018-07-30T22:36:26.022Z,4.42
2018-07-30T22:38:54.065Z,4.30
2018-07-30T22:41:22.110Z,4.55
2018-07-30T22:43:49.948Z,4.77
2018-07-30T22:46:17.981Z,4.58
2018-07-30T22:48:46.051Z,4.60
2018-07-30T22:51:14.102Z,5.08
2018-07-30T22:53:42.194Z,4.90
2018-07-30T22:56:10.256Z,4.85
2018-07-30T22:58:38.321Z,5.12
2018-07-30T23:13:23.472Z,5.20
2018-07-30T23:18:18.885Z,5.30
2018-07-30T23:23:14.318Z,5.40
2018-07-30T23:33:04.631Z,5.33
2018-07-30T23:35:32.550Z,5.50
